createdAt,value
2022-10-23T00:00:49.208Z,11.22
2022-10-23T00:03:17.517Z,11.16
2022-10-23T00:05:45.776Z,11.10
2022-10-23T00:08:15.562Z,11.07
2022-10-23T00:10:44.001Z,10.99
2022-10-23T00:13:12.100Z,10.92
2022-10-23T00:15:40.408Z,10.85
2022-10-23T00:18:08.653Z,10.80
2022-10-23T00:20:36.927Z,10.76
2022-10-23T00:23:05.290Z,10.72
2022-10-23T00:25:35.260Z,10.67
2022-10-23T00:28:03.493Z,10.64
2022-10-23T00:30:31.609Z,10.64
2022-10-23T00:32:59.675Z,10.62
2022-10-23T00:35:27.772Z,10.60
2022-10-23T00:37:55.935Z,10.60
2022-10-23T00:40:24.356Z,10.61
2022-10-23T00:42:53.891Z,10.60
2022-10-23T00:45:23.468Z,10.60
2022-10-23T00:47:51.592Z,10.63
2022-10-23T00:50:19.838Z,10.68
2022-10-23T00:52:50.246Z,10.66
2022-10-23T00:55:18.692Z,10.65
2022-10-23T00:57:47.169Z,10.62
2022-10-23T01:00:19.107Z,10.57
2022-10-23T01:02:47.477Z,10.53
2022-10-23T01:05:15.780Z,10.54
2022-10-23T01:07:51.624Z,10.53
2022-10-23T01:10:24.313Z,10.49
2022-10-23T01:12:54.504Z,10.49
2022-10-23T01:15:27.389Z,10.53
2022-10-23T01:17:57.977Z,10.49
2022-10-23T01:20:33.071Z,10.44
2022-10-23T01:23:18.884Z,10.50
2022-10-23T01:25:56.685Z,10.70
2022-10-23T01:28:27.795Z,10.73
2022-10-23T01:30:55.910Z,10.71
2022-10-23T01:33:26.046Z,10.72
2022-10-23T01:35:55.006Z,10.69
2022-10-23T01:38:25.340Z,10.65
2022-10-23T01:40:57.695Z,10.67
2022-10-23T01:43:29.009Z,10.63
2022-10-23T01:45:58.081Z,10.52
2022-10-23T01:48:29.604Z,10.50
2022-10-23T01:50:59.323Z,10.45
2022-10-23T01:53:30.732Z,10.40
2022-10-23T01:55:59.551Z,10.46
2022-10-23T01:58:29.424Z,10.52
2022-10-23T02:00:58.896Z,10.56
2022-10-23T02:03:27.706Z,10.66
2022-10-23T02:05:55.915Z,10.81
2022-10-23T02:08:25.558Z,10.92
2022-10-23T02:10:56.074Z,11.03
2022-10-23T02:13:26.423Z,11.11
2022-10-23T02:16:01.234Z,11.21
2022-10-23T02:18:34.071Z,11.19
2022-10-23T02:21:05.403Z,11.28
2022-10-23T02:23:34.992Z,11.30
2022-10-23T02:26:05.263Z,11.36
2022-10-23T02:28:35.613Z,11.47
2022-10-23T02:31:06.200Z,11.42
2022-10-23T02:33:37.462Z,11.36
2022-10-23T02:36:06.050Z,11.25
2022-10-23T02:38:36.307Z,11.24
2022-10-23T02:41:14.806Z,11.21
2022-10-23T02:43:46.080Z,11.28
2022-10-23T02:46:19.519Z,11.23
2022-10-23T02:48:49.928Z,11.21
2022-10-23T02:51:20.441Z,11.09
2022-10-23T02:53:54.057Z,10.96
2022-10-23T02:56:23.610Z,10.92
2022-10-23T02:58:56.788Z,10.84
2022-10-23T03:01:28.877Z,10.84
2022-10-23T03:03:58.970Z,10.85
2022-10-23T03:06:27.200Z,10.90
2022-10-23T03:08:56.146Z,10.90
2022-10-23T03:11:26.571Z,10.96
2022-10-23T03:13:56.314Z,10.96
2022-10-23T03:16:24.782Z,10.93
2022-10-23T03:18:57.006Z,10.91
2022-10-23T03:21:25.449Z,10.97
2022-10-23T03:23:54.723Z,10.96
2022-10-23T03:26:35.469Z,10.90
2022-10-23T03:29:03.715Z,10.85
2022-10-23T03:31:32.147Z,10.82
2022-10-23T03:34:05.156Z,10.73
2022-10-23T03:36:36.308Z,10.71
2022-10-23T03:39:05.494Z,10.67
2022-10-23T03:41:33.709Z,10.62
2022-10-23T03:44:01.946Z,10.53
2022-10-23T03:46:30.124Z,10.49
2022-10-23T03:48:59.077Z,10.41
2022-10-23T03:51:28.714Z,10.34
2022-10-23T03:53:59.082Z,10.29
2022-10-23T03:56:27.499Z,10.25
2022-10-23T03:58:55.584Z,10.24
2022-10-23T04:01:27.217Z,10.24
2022-10-23T04:03:55.911Z,10.15
2022-10-23T04:06:26.449Z,10.33
2022-10-23T04:08:59.292Z,10.31
2022-10-23T04:11:27.401Z,10.25
2022-10-23T04:13:55.506Z,10.21
2022-10-23T04:16:24.498Z,10.12
2022-10-23T04:18:52.624Z,10.01
2022-10-23T04:21:22.085Z,9.98
2022-10-23T04:23:50.296Z,9.91
2022-10-23T04:26:21.024Z,9.89
2022-10-23T04:28:50.259Z,9.88
2022-10-23T04:31:18.457Z,9.86
2022-10-23T04:33:46.546Z,9.83
2022-10-23T04:36:28.415Z,9.80
2022-10-23T04:38:56.478Z,9.76
2022-10-23T04:41:26.101Z,9.70
2022-10-23T04:43:54.251Z,9.67
2022-10-23T04:46:22.685Z,9.59
2022-10-23T04:48:51.054Z,9.49
2022-10-23T04:51:21.605Z,9.44
2022-10-23T04:54:25.018Z,9.38
2022-10-23T04:57:13.302Z,9.30
2022-10-23T05:00:01.025Z,9.30
2022-10-23T05:02:36.055Z,9.30
2022-10-23T05:05:04.239Z,9.29
2022-10-23T05:07:51.172Z,9.26
2022-10-23T05:10:27.859Z,9.22
2022-10-23T05:13:19.695Z,9.20
2022-10-23T05:15:48.569Z,9.22
2022-10-23T05:18:21.296Z,9.27
2022-10-23T05:20:49.898Z,9.28
2022-10-23T05:23:18.057Z,9.20
2022-10-23T05:25:55.040Z,9.16
2022-10-23T05:28:25.290Z,9.17
2022-10-23T05:30:53.477Z,9.22
2022-10-23T05:33:26.748Z,9.26
2022-10-23T05:35:54.900Z,9.27
2022-10-23T05:38:23.993Z,9.30
2022-10-23T05:40:52.584Z,9.34
2022-10-23T05:43:22.430Z,9.42
2022-10-23T05:45:55.560Z,9.48
2022-10-23T05:48:43.607Z,9.52
2022-10-23T05:51:37.918Z,9.58
2022-10-23T05:54:21.653Z,9.59
2022-10-23T05:56:59.686Z,9.60
2022-10-23T05:59:34.230Z,9.64
2022-10-23T06:02:22.762Z,9.72
2022-10-23T06:04:56.838Z,9.75
2022-10-23T06:07:43.700Z,9.75
2022-10-23T06:10:12.876Z,9.76
2022-10-23T06:12:45.297Z,9.82
2022-10-23T06:15:17.059Z,9.91
2022-10-23T06:18:15.464Z,10.02
2022-10-23T06:20:57.430Z,10.06
2022-10-23T06:23:27.909Z,10.16
2022-10-23T06:26:22.252Z,10.30
2022-10-23T06:29:11.881Z,10.39
2022-10-23T06:31:42.399Z,10.49
2022-10-23T06:34:11.979Z,10.68
2022-10-23T06:36:40.931Z,10.86
2022-10-23T06:39:29.806Z,11.03
2022-10-23T06:42:07.433Z,11.10
2022-10-23T06:44:59.634Z,11.25
2022-10-23T06:47:57.975Z,11.37
2022-10-23T06:50:46.207Z,11.45
2022-10-23T06:53:20.647Z,11.52
2022-10-23T06:55:55.493Z,11.67
2022-10-23T06:58:25.986Z,11.77
2022-10-23T07:01:12.949Z,11.79
2022-10-23T07:03:43.272Z,11.88
2022-10-23T07:06:13.987Z,11.94
2022-10-23T07:08:42.414Z,12.06
2022-10-23T07:11:30.454Z,12.17
2022-10-23T07:13:59.972Z,12.28
2022-10-23T07:16:28.288Z,12.38
2022-10-23T07:18:59.542Z,12.51
2022-10-23T07:21:29.677Z,12.60
2022-10-23T07:24:08.816Z,12.74
2022-10-23T07:26:41.568Z,12.82
2022-10-23T07:29:10.037Z,12.93
2022-10-23T07:31:38.278Z,13.09
2022-10-23T07:34:44.810Z,13.16
2022-10-23T07:37:26.787Z,13.21
2022-10-23T07:39:54.861Z,13.20
2022-10-23T07:42:27.516Z,13.22
2022-10-23T07:44:55.717Z,13.25
2022-10-23T07:47:24.851Z,13.27
2022-10-23T07:49:53.970Z,13.30
2022-10-23T07:52:22.348Z,13.36
2022-10-23T07:55:12.377Z,13.44
2022-10-23T07:57:59.624Z,13.52
2022-10-23T08:00:41.329Z,13.56
2022-10-23T08:03:26.691Z,13.57
2022-10-23T08:05:55.679Z,13.61
2022-10-23T08:08:23.837Z,13.65
2022-10-23T08:10:57.230Z,13.69
2022-10-23T08:13:30.479Z,13.78
2022-10-23T08:16:05.650Z,13.85
2022-10-23T08:19:05.998Z,13.93
2022-10-23T08:21:35.595Z,14.05
2022-10-23T08:24:04.850Z,14.09
2022-10-23T08:26:34.811Z,14.13
2022-10-23T08:29:02.985Z,14.13
2022-10-23T08:31:31.149Z,14.18
2022-10-23T08:34:28.456Z,14.25
2022-10-23T08:36:57.482Z,14.29
2022-10-23T08:39:26.057Z,14.31
2022-10-23T08:42:06.901Z,14.42
2022-10-23T08:44:37.195Z,14.57
2022-10-23T08:47:06.709Z,14.73
2022-10-23T08:50:08.656Z,14.88
2022-10-23T08:52:38.924Z,15.09
2022-10-23T08:55:15.162Z,15.35
2022-10-23T08:57:46.806Z,15.55
2022-10-23T09:00:15.910Z,15.69
2022-10-23T09:02:45.330Z,15.76
2022-10-23T09:05:16.410Z,15.82
2022-10-23T09:07:51.258Z,15.89
2022-10-23T09:10:32.247Z,16.00
2022-10-23T09:13:04.227Z,16.09
2022-10-23T09:15:35.049Z,16.13
2022-10-23T09:18:12.976Z,16.16
2022-10-23T09:20:41.617Z,16.21
2022-10-23T09:23:15.692Z,16.24
2022-10-23T09:25:43.974Z,16.41
2022-10-23T09:28:17.605Z,16.55
2022-10-23T09:30:45.751Z,16.61
2022-10-23T09:33:15.305Z,16.78
2022-10-23T09:35:53.388Z,16.86
2022-10-23T09:38:31.627Z,16.97
2022-10-23T09:41:01.259Z,17.13
2022-10-23T09:43:30.715Z,17.34
2022-10-23T09:46:05.107Z,17.42
2022-10-23T09:48:34.987Z,17.43
2022-10-23T09:51:04.054Z,17.43
2022-10-23T09:53:38.468Z,17.47
2022-10-23T09:56:24.717Z,17.44
2022-10-23T09:58:56.706Z,17.54
2022-10-23T10:01:25.493Z,17.55
2022-10-23T10:03:57.060Z,17.57
2022-10-23T10:06:28.402Z,17.39
2022-10-23T10:08:59.200Z,17.53
2022-10-23T10:11:29.867Z,17.62
2022-10-23T10:14:19.765Z,17.63
2022-10-23T10:16:51.177Z,17.64
2022-10-23T10:19:28.530Z,17.72
2022-10-23T10:21:59.830Z,17.74
2022-10-23T10:24:31.632Z,17.78
2022-10-23T10:27:02.866Z,17.89
2022-10-23T10:29:43.180Z,17.85
2022-10-23T10:32:18.800Z,17.75
2022-10-23T10:34:49.650Z,17.65
2022-10-23T10:37:24.869Z,17.53
2022-10-23T10:39:56.317Z,17.47
2022-10-23T10:42:32.495Z,17.40
2022-10-23T10:45:09.150Z,17.39
2022-10-23T10:47:41.629Z,17.35
2022-10-23T10:50:18.377Z,17.28
2022-10-23T10:53:19.695Z,17.28
2022-10-23T10:55:49.275Z,17.39
2022-10-23T10:58:18.587Z,17.51
2022-10-23T11:01:00.662Z,17.55
2022-10-23T11:03:53.870Z,17.63
2022-10-23T11:06:23.147Z,17.69
2022-10-23T11:08:58.201Z,17.82
2022-10-23T11:11:41.013Z,17.97
2022-10-23T11:14:15.956Z,18.08
2022-10-23T11:16:56.843Z,18.25
2022-10-23T11:19:29.676Z,18.42
2022-10-23T11:21:59.742Z,18.58
2022-10-23T11:24:54.594Z,18.81
2022-10-23T11:27:32.416Z,18.86
2022-10-23T11:30:24.751Z,19.12
2022-10-23T11:33:46.080Z,19.09
2022-10-23T11:40:48.151Z,19.19
2022-10-23T11:43:33.519Z,19.24
2022-10-23T11:46:13.257Z,19.24
2022-10-23T11:48:41.989Z,19.16
2022-10-23T11:51:28.211Z,19.13
2022-10-23T11:54:07.434Z,19.03
2022-10-23T11:56:35.662Z,19.07
2022-10-23T11:59:21.357Z,19.11
2022-10-23T12:01:49.651Z,19.13
2022-10-23T12:04:21.644Z,19.18
2022-10-23T12:06:51.013Z,19.09
2022-10-23T12:09:27.723Z,19.00
2022-10-23T12:12:28.971Z,18.93
2022-10-23T12:15:10.772Z,18.90
2022-10-23T12:17:40.111Z,18.87
2022-10-23T12:20:40.058Z,18.84
2022-10-23T12:23:32.922Z,18.86
2022-10-23T12:26:19.812Z,18.81
2022-10-23T12:28:51.416Z,18.71
2022-10-23T12:31:27.167Z,18.73
2022-10-23T12:34:00.942Z,18.70
2022-10-23T12:36:42.868Z,18.62
2022-10-23T12:39:28.995Z,18.53
2022-10-23T12:41:57.165Z,18.56
2022-10-23T12:44:25.585Z,18.58
2022-10-23T12:46:56.328Z,18.61
2022-10-23T12:49:25.723Z,18.58
2022-10-23T12:51:57.438Z,18.59
2022-10-23T12:54:26.182Z,18.53
2022-10-23T12:56:54.564Z,18.50
2022-10-23T12:59:26.282Z,18.49
2022-10-23T13:04:39.390Z,18.51
2022-10-23T13:07:07.688Z,18.46
2022-10-23T13:09:36.746Z,18.41
2022-10-23T13:12:20.780Z,18.33
2022-10-23T13:15:00.135Z,18.29
2022-10-23T13:17:40.215Z,18.19
2022-10-23T13:20:13.186Z,18.13
2022-10-23T13:22:41.867Z,18.08
2022-10-23T13:25:24.031Z,18.01
2022-10-23T13:27:52.409Z,17.96
2022-10-23T13:30:30.095Z,17.92
2022-10-23T13:32:59.968Z,17.90
2022-10-23T13:35:28.296Z,17.85
2022-10-23T13:37:56.970Z,17.84
2022-10-23T13:40:25.911Z,17.86
2022-10-23T13:42:55.070Z,17.86
2022-10-23T13:45:25.843Z,17.77
2022-10-23T13:47:53.986Z,17.74
2022-10-23T13:50:23.547Z,17.66
2022-10-23T13:52:52.840Z,17.61
2022-10-23T13:55:22.937Z,17.56
2022-10-23T13:57:51.680Z,17.50
2022-10-23T14:00:19.977Z,17.46
2022-10-23T14:02:49.167Z,17.41
2022-10-23T14:05:17.781Z,17.33
2022-10-23T14:07:47.357Z,17.26
2022-10-23T14:10:15.498Z,17.22
2022-10-23T14:12:44.351Z,17.20
2022-10-23T14:15:13.081Z,17.11
2022-10-23T14:17:41.290Z,17.04
2022-10-23T14:20:10.776Z,17.02
2022-10-23T14:22:38.902Z,16.96
2022-10-23T14:25:09.056Z,16.91
2022-10-23T14:27:37.466Z,16.90
2022-10-23T14:30:06.343Z,16.85
2022-10-23T14:32:34.499Z,16.79
2022-10-23T14:35:03.993Z,16.79
2022-10-23T14:37:32.249Z,16.80
2022-10-23T14:40:00.757Z,16.75
2022-10-23T14:46:47.016Z,16.63
2022-10-23T14:49:16.675Z,16.57
2022-10-23T14:51:44.793Z,16.54
2022-10-23T14:54:12.936Z,16.52
2022-10-23T14:56:41.226Z,16.51
2022-10-23T14:59:10.837Z,16.51
2022-10-23T15:01:43.714Z,16.42
2022-10-23T15:04:16.873Z,16.36
2022-10-23T15:06:45.194Z,16.33
2022-10-23T15:09:13.294Z,16.30
2022-10-23T15:11:43.639Z,16.24
2022-10-23T15:14:12.072Z,16.16
2022-10-23T15:16:42.437Z,16.11
2022-10-23T15:19:13.674Z,16.10
2022-10-23T15:21:47.145Z,16.06
2022-10-23T15:24:51.133Z,16.03
2022-10-23T15:27:19.351Z,16.04
2022-10-23T15:29:47.555Z,16.02
2022-10-23T15:32:15.851Z,15.97
2022-10-23T15:34:44.057Z,15.98
2022-10-23T15:37:13.647Z,15.95
2022-10-23T15:39:41.810Z,15.86
2022-10-23T15:42:11.080Z,15.86
2022-10-23T15:44:39.188Z,15.80
2022-10-23T15:47:07.266Z,15.78
2022-10-23T15:49:35.423Z,15.72
2022-10-23T15:52:04.359Z,15.69
2022-10-23T15:54:35.174Z,15.68
2022-10-23T15:57:03.828Z,15.67
2022-10-23T15:59:32.314Z,15.64
2022-10-23T16:02:00.664Z,15.55
2022-10-23T16:04:29.604Z,15.52
2022-10-23T16:06:57.677Z,15.49
2022-10-23T16:09:25.840Z,15.48
2022-10-23T16:12:07.101Z,15.48
2022-10-23T16:14:36.328Z,15.40
2022-10-23T16:17:04.500Z,15.39
2022-10-23T16:19:32.649Z,15.38
2022-10-23T16:22:00.880Z,15.29
2022-10-23T16:24:28.954Z,15.27
2022-10-23T16:31:09.782Z,15.13
2022-10-23T16:33:39.510Z,15.10
2022-10-23T16:36:08.288Z,15.02
2022-10-23T16:38:56.443Z,14.94
2022-10-23T16:41:44.692Z,14.85
2022-10-23T16:44:18.742Z,14.85
2022-10-23T16:47:00.636Z,14.84
2022-10-23T16:49:32.272Z,14.79
2022-10-23T16:52:00.390Z,14.74
2022-10-23T16:54:28.846Z,14.69
2022-10-23T16:56:57.011Z,14.61
2022-10-23T16:59:25.148Z,14.53
2022-10-23T17:01:53.530Z,14.51
2022-10-23T17:04:21.862Z,14.42
2022-10-23T17:06:51.392Z,14.38
2022-10-23T17:09:19.563Z,14.32
2022-10-23T17:11:48.030Z,14.27
2022-10-23T17:14:17.522Z,14.32
2022-10-23T17:16:47.710Z,14.31
2022-10-23T17:19:33.137Z,14.42
2022-10-23T17:22:10.606Z,14.45
2022-10-23T17:24:39.087Z,14.39
2022-10-23T17:27:07.324Z,14.38
2022-10-23T17:29:35.567Z,14.33
2022-10-23T17:32:03.785Z,14.34
2022-10-23T17:34:32.044Z,14.36
2022-10-23T17:37:00.159Z,14.38
2022-10-23T17:39:30.504Z,14.41
2022-10-23T17:41:58.713Z,14.43
2022-10-23T17:44:26.930Z,14.45
2022-10-23T17:46:55.423Z,14.45
2022-10-23T17:49:24.087Z,14.46
2022-10-23T17:51:52.820Z,14.44
2022-10-23T17:54:21.013Z,14.50
2022-10-23T17:56:50.677Z,14.53
2022-10-23T17:59:19.743Z,14.55
2022-10-23T18:01:48.734Z,14.56
2022-10-23T18:04:17.830Z,14.58
2022-10-23T18:06:46.642Z,14.57
2022-10-23T18:09:14.964Z,14.60
2022-10-23T18:11:45.553Z,14.63
2022-10-23T18:14:17.594Z,14.64
2022-10-23T18:16:46.790Z,14.73
2022-10-23T18:19:15.427Z,14.75
2022-10-23T18:21:43.596Z,14.80
2022-10-23T18:24:11.752Z,14.89
2022-10-23T18:26:41.355Z,14.90
2022-10-23T18:29:10.371Z,14.91
2022-10-23T18:31:40.209Z,15.00
2022-10-23T18:34:12.086Z,14.95
2022-10-23T18:36:40.787Z,15.01
2022-10-23T18:39:10.000Z,15.02
2022-10-23T18:41:39.005Z,15.08
2022-10-23T18:44:07.611Z,15.12
2022-10-23T18:46:36.005Z,15.12
2022-10-23T18:49:08.173Z,15.08
2022-10-23T18:51:36.560Z,15.05
2022-10-23T18:54:05.924Z,15.10
2022-10-23T18:56:38.397Z,15.12
2022-10-23T18:59:07.432Z,15.15
2022-10-23T19:01:35.824Z,15.15
2022-10-23T19:04:05.796Z,15.14
2022-10-23T19:06:34.111Z,15.15
2022-10-23T19:09:02.317Z,15.12
2022-10-23T19:11:30.864Z,15.11
2022-10-23T19:13:59.142Z,15.12
2022-10-23T19:16:28.778Z,15.18
2022-10-23T19:18:58.247Z,15.16
2022-10-23T19:21:31.344Z,15.14
2022-10-23T19:24:00.048Z,15.19
2022-10-23T19:26:28.522Z,15.19
2022-10-23T19:28:56.660Z,15.19
2022-10-23T19:31:26.405Z,15.21
2022-10-23T19:33:54.647Z,15.17
2022-10-23T19:36:23.637Z,15.14
2022-10-23T19:38:53.304Z,15.10
2022-10-23T19:41:21.822Z,15.08
2022-10-23T19:43:50.074Z,15.08
2022-10-23T19:46:18.242Z,15.07
2022-10-23T19:48:46.901Z,15.09
2022-10-23T19:51:15.120Z,15.07
2022-10-23T19:53:43.695Z,15.06
2022-10-23T19:56:13.450Z,15.04
2022-10-23T19:58:41.844Z,15.00
2022-10-23T20:01:11.779Z,14.98
2022-10-23T20:03:40.549Z,14.94
2022-10-23T20:06:12.160Z,14.98
2022-10-23T20:08:40.829Z,15.03
2022-10-23T20:11:09.362Z,15.06
2022-10-23T20:13:38.918Z,15.04
2022-10-23T20:16:07.739Z,15.04
2022-10-23T20:18:35.982Z,15.05
2022-10-23T20:21:04.549Z,15.07
2022-10-23T20:23:32.726Z,15.05
2022-10-23T20:26:07.624Z,15.06
2022-10-23T20:28:35.875Z,15.03
2022-10-23T20:31:08.483Z,15.02
2022-10-23T20:33:36.941Z,15.04
2022-10-23T20:36:05.291Z,15.08
2022-10-23T20:38:33.486Z,15.20
2022-10-23T20:41:05.706Z,15.39
2022-10-23T20:43:34.309Z,15.55
2022-10-23T20:46:04.889Z,15.75
2022-10-23T20:48:36.073Z,15.72
2022-10-23T20:51:06.755Z,15.58
2022-10-23T20:53:35.403Z,15.52
2022-10-23T20:56:05.913Z,15.39
2022-10-23T20:58:34.137Z,15.23
2022-10-23T21:01:05.829Z,15.12
2022-10-23T21:03:35.893Z,14.94
2022-10-23T21:06:05.119Z,14.94
2022-10-23T21:08:33.274Z,14.98
2022-10-23T21:11:01.420Z,14.96
2022-10-23T21:13:29.663Z,14.96
2022-10-23T21:15:58.791Z,14.98
2022-10-23T21:18:45.116Z,14.94
2022-10-23T21:21:17.138Z,14.83
2022-10-23T21:23:45.304Z,14.84
2022-10-23T21:26:13.886Z,14.73
2022-10-23T21:28:50.736Z,14.61
2022-10-23T21:31:29.081Z,14.47
2022-10-23T21:33:57.266Z,14.40
2022-10-23T21:36:27.550Z,14.36
2022-10-23T21:38:57.151Z,14.33
2022-10-23T21:41:26.367Z,14.31
2022-10-23T21:43:55.565Z,14.40
2022-10-23T21:46:23.762Z,14.42
2022-10-23T21:48:51.924Z,14.39
2022-10-23T21:51:24.033Z,14.41
2022-10-23T21:53:54.322Z,14.42
2022-10-23T21:56:28.425Z,14.44
2022-10-23T21:58:56.796Z,14.60
2022-10-23T22:01:25.047Z,14.78
2022-10-23T22:03:53.241Z,14.94
2022-10-23T22:06:22.706Z,15.05
2022-10-23T22:08:50.834Z,15.17
2022-10-23T22:11:20.809Z,15.19
2022-10-23T22:13:48.962Z,15.24
2022-10-23T22:16:17.244Z,15.19
2022-10-23T22:18:45.493Z,15.23
2022-10-23T22:21:14.477Z,15.20
2022-10-23T22:23:42.774Z,15.32
2022-10-23T22:26:16.818Z,15.43
2022-10-23T22:28:46.320Z,15.40
2022-10-23T22:31:15.762Z,15.31
2022-10-23T22:33:43.904Z,15.37
2022-10-23T22:36:12.156Z,15.40
2022-10-23T22:38:40.858Z,15.45
2022-10-23T22:41:09.203Z,15.44
2022-10-23T22:43:37.801Z,15.43
2022-10-23T22:46:09.384Z,15.45
2022-10-23T22:48:37.589Z,15.47
2022-10-23T22:51:07.350Z,15.45
2022-10-23T22:53:39.463Z,15.48
2022-10-23T22:56:07.854Z,15.49
2022-10-23T22:58:35.960Z,15.50
2022-10-23T23:01:06.286Z,15.59
2022-10-23T23:03:36.279Z,15.60
2022-10-23T23:06:04.797Z,15.62
2022-10-23T23:08:33.246Z,15.60
2022-10-23T23:11:01.478Z,15.59
2022-10-23T23:13:29.644Z,15.53
2022-10-23T23:15:57.830Z,15.49
2022-10-23T23:18:26.039Z,15.49
2022-10-23T23:20:55.813Z,15.50
2022-10-23T23:23:24.037Z,15.52
2022-10-23T23:25:52.221Z,15.55
2022-10-23T23:28:20.868Z,15.52
2022-10-23T23:30:49.055Z,15.47
2022-10-23T23:33:19.164Z,15.47
2022-10-23T23:35:47.611Z,15.50
2022-10-23T23:38:17.166Z,15.54
2022-10-23T23:40:51.036Z,15.55
2022-10-23T23:43:19.268Z,15.52
2022-10-23T23:45:47.744Z,15.58
2022-10-23T23:48:15.871Z,15.65
2022-10-23T23:50:43.987Z,15.72
2022-10-23T23:53:12.027Z,15.73
2022-10-23T23:55:41.569Z,15.75
2022-10-23T23:58:10.363Z,15.80
